sensor_id;sensor_type;location;lat;lon;timestamp;pressure;altitude;pressure_sealevel;temperature;humidity
37792;BME280;29527;55.766;37.570;2023-04-19T00:01:23;100720.28;;;10.95;32.31
37792;BME280;29527;55.766;37.570;2023-04-19T00:03:49;100727.91;;;11.01;32.37
37792;BME280;29527;55.766;37.570;2023-04-19T00:06:15;100735.09;;;11.14;32.20
37792;BME280;29527;55.766;37.570;2023-04-19T00:08:42;100700.47;;;11.11;31.95
37792;BME280;29527;55.766;37.570;2023-04-19T00:11:08;100738.97;;;11.10;32.51
37792;BME280;29527;55.766;37.570;2023-04-19T00:13:34;100743.22;;;10.99;32.67
37792;BME280;29527;55.766;37.570;2023-04-19T00:15:59;100741.94;;;11.05;32.70
37792;BME280;29527;55.766;37.570;2023-04-19T00:18:25;100744.19;;;10.98;32.86
37792;BME280;29527;55.766;37.570;2023-04-19T00:20:51;100748.38;;;11.02;32.67
37792;BME280;29527;55.766;37.570;2023-04-19T00:23:16;100747.75;;;10.99;32.73
37792;BME280;29527;55.766;37.570;2023-04-19T00:25:42;100751.91;;;11.03;32.50
37792;BME280;29527;55.766;37.570;2023-04-19T00:28:07;100731.66;;;10.99;32.72
37792;BME280;29527;55.766;37.570;2023-04-19T00:30:33;100739.91;;;11.09;32.84
37792;BME280;29527;55.766;37.570;2023-04-19T00:32:58;100712.34;;;10.94;32.43
37792;BME280;29527;55.766;37.570;2023-04-19T00:35:24;100740.78;;;11.22;32.12
37792;BME280;29527;55.766;37.570;2023-04-19T00:37:49;100732.97;;;11.19;32.15
37792;BME280;29527;55.766;37.570;2023-04-19T00:40:15;100738.63;;;11.01;32.81
37792;BME280;29527;55.766;37.570;2023-04-19T00:42:41;100733.47;;;10.98;32.56
37792;BME280;29527;55.766;37.570;2023-04-19T00:45:07;100744.34;;;11.10;32.73
37792;BME280;29527;55.766;37.570;2023-04-19T00:47:34;100741.94;;;10.92;33.17
37792;BME280;29527;55.766;37.570;2023-04-19T00:50:02;100740.88;;;11.08;32.77
37792;BME280;29527;55.766;37.570;2023-04-19T00:52:29;100747.28;;;10.92;32.76
37792;BME280;29527;55.766;37.570;2023-04-19T00:54:56;100747.28;;;10.92;32.95
37792;BME280;29527;55.766;37.570;2023-04-19T00:57:23;100747.59;;;10.87;32.92
37792;BME280;29527;55.766;37.570;2023-04-19T00:59:50;100742.78;;;10.93;32.72
37792;BME280;29527;55.766;37.570;2023-04-19T01:02:15;100746.84;;;10.85;32.86
37792;BME280;29527;55.766;37.570;2023-04-19T01:04:41;100738.47;;;10.77;32.97
37792;BME280;29527;55.766;37.570;2023-04-19T01:07:07;100751.78;;;10.91;32.69
37792;BME280;29527;55.766;37.570;2023-04-19T01:09:33;100748.09;;;10.80;32.70
37792;BME280;29527;55.766;37.570;2023-04-19T01:12:00;100753.31;;;10.68;32.93
37792;BME280;29527;55.766;37.570;2023-04-19T01:14:26;100749.13;;;10.64;33.18
37792;BME280;29527;55.766;37.570;2023-04-19T01:16:51;100744.91;;;10.60;33.17
37792;BME280;29527;55.766;37.570;2023-04-19T01:19:18;100753.63;;;10.63;32.84
37792;BME280;29527;55.766;37.570;2023-04-19T01:21:45;100754.06;;;10.43;33.79
37792;BME280;29527;55.766;37.570;2023-04-19T01:24:11;100756.66;;;10.30;34.10
37792;BME280;29527;55.766;37.570;2023-04-19T01:26:36;100752.63;;;10.37;33.66
37792;BME280;29527;55.766;37.570;2023-04-19T01:29:02;100751.56;;;10.40;33.54
37792;BME280;29527;55.766;37.570;2023-04-19T01:31:28;100759.34;;;10.44;33.74
37792;BME280;29527;55.766;37.570;2023-04-19T01:33:53;100758.00;;;10.37;33.33
37792;BME280;29527;55.766;37.570;2023-04-19T01:36:19;100744.03;;;10.32;33.81
37792;BME280;29527;55.766;37.570;2023-04-19T01:38:44;100752.84;;;10.19;34.21
37792;BME280;29527;55.766;37.570;2023-04-19T01:41:12;100760.00;;;10.19;34.28
37792;BME280;29527;55.766;37.570;2023-04-19T01:43:38;100754.66;;;10.33;33.87
37792;BME280;29527;55.766;37.570;2023-04-19T01:46:03;100751.03;;;10.20;34.21
37792;BME280;29527;55.766;37.570;2023-04-19T01:48:29;100744.00;;;10.04;34.54
37792;BME280;29527;55.766;37.570;2023-04-19T01:50:55;100757.25;;;10.20;34.10
37792;BME280;29527;55.766;37.570;2023-04-19T01:53:20;100749.03;;;10.24;34.20
37792;BME280;29527;55.766;37.570;2023-04-19T01:55:46;100750.19;;;10.19;34.42
37792;BME280;29527;55.766;37.570;2023-04-19T01:58:11;100753.25;;;10.13;34.18
37792;BME280;29527;55.766;37.570;2023-04-19T02:00:37;100740.44;;;10.04;34.91
37792;BME280;29527;55.766;37.570;2023-04-19T02:03:04;100748.19;;;10.09;34.82
37792;BME280;29527;55.766;37.570;2023-04-19T02:05:29;100746.06;;;10.14;34.37
37792;BME280;29527;55.766;37.570;2023-04-19T02:07:55;100738.72;;;10.03;34.80
37792;BME280;29527;55.766;37.570;2023-04-19T02:10:20;100734.19;;;9.90;34.92
37792;BME280;29527;55.766;37.570;2023-04-19T02:12:46;100737.22;;;9.99;34.75
37792;BME280;29527;55.766;37.570;2023-04-19T02:15:12;100744.19;;;10.01;34.72
37792;BME280;29527;55.766;37.570;2023-04-19T02:17:38;100744.50;;;10.24;34.28
37792;BME280;29527;55.766;37.570;2023-04-19T02:20:05;100733.28;;;10.04;34.91
37792;BME280;29527;55.766;37.570;2023-04-19T02:22:32;100710.78;;;9.80;35.36
37792;BME280;29527;55.766;37.570;2023-04-19T02:24:58;100743.88;;;10.06;35.33
37792;BME280;29527;55.766;37.570;2023-04-19T02:27:23;100743.13;;;10.18;34.99
37792;BME280;29527;55.766;37.570;2023-04-19T02:29:49;100742.56;;;10.13;34.89
37792;BME280;29527;55.766;37.570;2023-04-19T02:32:14;100743.69;;;10.09;34.93
37792;BME280;29527;55.766;37.570;2023-04-19T02:34:40;100754.59;;;10.06;35.46
37792;BME280;29527;55.766;37.570;2023-04-19T02:37:06;100748.66;;;10.15;34.80
37792;BME280;29527;55.766;37.570;2023-04-19T02:39:31;100753.81;;;10.18;34.92
37792;BME280;29527;55.766;37.570;2023-04-19T02:41:58;100754.84;;;10.16;35.10
37792;BME280;29527;55.766;37.570;2023-04-19T02:44:25;100758.97;;;10.22;35.08
37792;BME280;29527;55.766;37.570;2023-04-19T02:46:52;100766.25;;;10.19;35.14
37792;BME280;29527;55.766;37.570;2023-04-19T02:49:19;100761.34;;;10.26;34.88
37792;BME280;29527;55.766;37.570;2023-04-19T02:51:46;100762.88;;;10.30;35.15
37792;BME280;29527;55.766;37.570;2023-04-19T02:54:12;100766.09;;;10.36;34.94
37792;BME280;29527;55.766;37.570;2023-04-19T02:56:38;100768.69;;;10.37;34.94
37792;BME280;29527;55.766;37.570;2023-04-19T02:59:03;100762.66;;;10.33;34.92
37792;BME280;29527;55.766;37.570;2023-04-19T03:01:30;100762.56;;;10.35;34.67
37792;BME280;29527;55.766;37.570;2023-04-19T03:03:56;100758.00;;;10.37;35.09
37792;BME280;29527;55.766;37.570;2023-04-19T03:06:22;100765.91;;;10.53;34.29
37792;BME280;29527;55.766;37.570;2023-04-19T03:08:47;100763.38;;;10.65;34.15
37792;BME280;29527;55.766;37.570;2023-04-19T03:11:15;100765.59;;;10.58;34.38
37792;BME280;29527;55.766;37.570;2023-04-19T03:13:40;100756.16;;;10.52;34.57
37792;BME280;29527;55.766;37.570;2023-04-19T03:16:07;100756.59;;;10.59;34.29
37792;BME280;29527;55.766;37.570;2023-04-19T03:18:33;100760.47;;;10.68;34.02
37792;BME280;29527;55.766;37.570;2023-04-19T03:20:58;100761.25;;;10.70;33.88
37792;BME280;29527;55.766;37.570;2023-04-19T03:23:27;100761.34;;;10.68;34.11
37792;BME280;29527;55.766;37.570;2023-04-19T03:25:52;100763.22;;;10.81;33.66
37792;BME280;29527;55.766;37.570;2023-04-19T03:28:18;100765.75;;;10.69;33.88
37792;BME280;29527;55.766;37.570;2023-04-19T03:30:43;100762.53;;;10.64;33.96
37792;BME280;29527;55.766;37.570;2023-04-19T03:33:09;100764.59;;;10.73;33.92
37792;BME280;29527;55.766;37.570;2023-04-19T03:35:35;100769.94;;;10.73;34.01
37792;BME280;29527;55.766;37.570;2023-04-19T03:38:00;100771.50;;;10.90;33.67
37792;BME280;29527;55.766;37.570;2023-04-19T03:40:26;100773.06;;;10.80;33.87
37792;BME280;29527;55.766;37.570;2023-04-19T03:42:51;100761.59;;;10.78;34.13
37792;BME280;29527;55.766;37.570;2023-04-19T03:45:17;100764.38;;;10.76;34.16
37792;BME280;29527;55.766;37.570;2023-04-19T03:47:42;100767.22;;;10.88;33.99
37792;BME280;29527;55.766;37.570;2023-04-19T03:50:08;100774.94;;;11.05;33.64
37792;BME280;29527;55.766;37.570;2023-04-19T03:52:34;100767.28;;;11.27;33.12
37792;BME280;29527;55.766;37.570;2023-04-19T03:55:00;100767.53;;;11.37;32.53
37792;BME280;29527;55.766;37.570;2023-04-19T03:57:25;100765.59;;;11.39;32.80
37792;BME280;29527;55.766;37.570;2023-04-19T03:59:51;100767.09;;;11.56;32.81
37792;BME280;29527;55.766;37.570;2023-04-19T04:02:16;100771.81;;;11.65;32.63
37792;BME280;29527;55.766;37.570;2023-04-19T04:04:41;100743.91;;;11.68;32.22
37792;BME280;29527;55.766;37.570;2023-04-19T04:07:07;100779.97;;;12.02;31.61
37792;BME280;29527;55.766;37.570;2023-04-19T04:09:33;100770.72;;;12.06;31.69
37792;BME280;29527;55.766;37.570;2023-04-19T04:11:58;100769.50;;;12.24;31.36
37792;BME280;29527;55.766;37.570;2023-04-19T04:14:24;100771.72;;;12.43;31.24
37792;BME280;29527;55.766;37.570;2023-04-19T04:16:49;100772.75;;;12.53;30.96
37792;BME280;29527;55.766;37.570;2023-04-19T04:19:16;100775.22;;;12.81;30.72
37792;BME280;29527;55.766;37.570;2023-04-19T04:21:42;100772.88;;;13.12;29.93
37792;BME280;29527;55.766;37.570;2023-04-19T04:24:07;100774.78;;;13.81;29.03
37792;BME280;29527;55.766;37.570;2023-04-19T04:26:34;100759.56;;;14.14;28.27
37792;BME280;29527;55.766;37.570;2023-04-19T04:29:04;100765.66;;;14.50;27.78
37792;BME280;29527;55.766;37.570;2023-04-19T04:31:29;100784.94;;;14.78;27.60
37792;BME280;29527;55.766;37.570;2023-04-19T04:33:56;100779.72;;;14.98;26.83
37792;BME280;29527;55.766;37.570;2023-04-19T04:36:21;100773.97;;;15.24;27.04
37792;BME280;29527;55.766;37.570;2023-04-19T04:38:47;100785.66;;;15.34;26.59
37792;BME280;29527;55.766;37.570;2023-04-19T04:41:13;100782.94;;;15.77;26.37
37792;BME280;29527;55.766;37.570;2023-04-19T04:43:38;100775.13;;;16.56;25.04
37792;BME280;29527;55.766;37.570;2023-04-19T04:46:04;100781.97;;;16.70;24.70
37792;BME280;29527;55.766;37.570;2023-04-19T04:48:30;100782.03;;;17.19;24.23
37792;BME280;29527;55.766;37.570;2023-04-19T04:50:56;100780.03;;;17.01;24.10
37792;BME280;29527;55.766;37.570;2023-04-19T04:53:22;100783.81;;;16.59;24.65
37792;BME280;29527;55.766;37.570;2023-04-19T04:55:51;100784.75;;;16.29;25.11
37792;BME280;29527;55.766;37.570;2023-04-19T04:58:17;100788.97;;;16.12;25.55
37792;BME280;29527;55.766;37.570;2023-04-19T05:00:42;100781.97;;;16.09;25.49
37792;BME280;29527;55.766;37.570;2023-04-19T05:03:08;100761.63;;;16.05;25.42
37792;BME280;29527;55.766;37.570;2023-04-19T05:05:33;100793.47;;;16.42;24.95
37792;BME280;29527;55.766;37.570;2023-04-19T05:07:59;100787.59;;;16.37;25.37
37792;BME280;29527;55.766;37.570;2023-04-19T05:10:25;100796.88;;;16.44;25.10
37792;BME280;29527;55.766;37.570;2023-04-19T05:12:50;100797.69;;;17.15;24.34
37792;BME280;29527;55.766;37.570;2023-04-19T05:15:16;100797.47;;;18.42;22.66
37792;BME280;29527;55.766;37.570;2023-04-19T05:17:41;100795.72;;;18.22;22.79
37792;BME280;29527;55.766;37.570;2023-04-19T05:20:08;100788.91;;;18.64;22.48
37792;BME280;29527;55.766;37.570;2023-04-19T05:22:33;100800.63;;;19.82;21.16
37792;BME280;29527;55.766;37.570;2023-04-19T05:24:59;100793.75;;;19.96;20.95
37792;BME280;29527;55.766;37.570;2023-04-19T05:27:24;100792.78;;;19.79;21.09
37792;BME280;29527;55.766;37.570;2023-04-19T05:29:50;100803.06;;;20.28;20.42
37792;BME280;29527;55.766;37.570;2023-04-19T05:32:16;100808.56;;;21.79;19.13
37792;BME280;29527;55.766;37.570;2023-04-19T05:34:41;100801.06;;;23.16;17.59
37792;BME280;29527;55.766;37.570;2023-04-19T05:37:07;100810.59;;;25.00;16.35
37792;BME280;29527;55.766;37.570;2023-04-19T05:39:33;100797.25;;;27.02;14.39
37792;BME280;29527;55.766;37.570;2023-04-19T05:41:58;100802.97;;;28.92;12.90
37792;BME280;29527;55.766;37.570;2023-04-19T05:44:24;100765.16;;;30.13;11.42
37792;BME280;29527;55.766;37.570;2023-04-19T05:46:50;100800.88;;;31.06;10.72
37792;BME280;29527;55.766;37.570;2023-04-19T05:49:15;100808.16;;;31.19;11.22
37792;BME280;29527;55.766;37.570;2023-04-19T05:51:41;100786.19;;;31.60;10.42
37792;BME280;29527;55.766;37.570;2023-04-19T05:54:06;100785.66;;;32.11;10.34
37792;BME280;29527;55.766;37.570;2023-04-19T05:56:37;100810.75;;;33.38;9.73
37792;BME280;29527;55.766;37.570;2023-04-19T05:59:02;100800.19;;;33.52;9.07
37792;BME280;29527;55.766;37.570;2023-04-19T06:01:28;100791.50;;;33.14;9.19
37792;BME280;29527;55.766;37.570;2023-04-19T06:03:53;100801.78;;;33.87;9.00
37792;BME280;29527;55.766;37.570;2023-04-19T06:06:21;100811.53;;;34.73;8.53
37792;BME280;29527;55.766;37.570;2023-04-19T06:08:46;100798.94;;;33.82;8.67
37792;BME280;29527;55.766;37.570;2023-04-19T06:11:12;100804.31;;;33.49;8.85
37792;BME280;29527;55.766;37.570;2023-04-19T06:13:37;100809.22;;;33.98;8.54
37792;BME280;29527;55.766;37.570;2023-04-19T06:16:03;100806.09;;;34.89;8.12
37792;BME280;29527;55.766;37.570;2023-04-19T06:18:29;100797.63;;;36.40;7.34
37792;BME280;29527;55.766;37.570;2023-04-19T06:20:54;100784.97;;;37.01;6.94
37792;BME280;29527;55.766;37.570;2023-04-19T06:23:20;100793.53;;;37.83;6.52
37792;BME280;29527;55.766;37.570;2023-04-19T06:25:45;100805.91;;;38.32;6.08
37792;BME280;29527;55.766;37.570;2023-04-19T06:28:13;100796.50;;;38.17;6.28
37792;BME280;29527;55.766;37.570;2023-04-19T06:30:38;100801.00;;;38.13;5.97
37792;BME280;29527;55.766;37.570;2023-04-19T06:33:04;100803.34;;;37.70;6.36
37792;BME280;29527;55.766;37.570;2023-04-19T06:35:30;100802.47;;;37.80;6.63
37792;BME280;29527;55.766;37.570;2023-04-19T06:37:56;100808.38;;;37.68;6.01
37792;BME280;29527;55.766;37.570;2023-04-19T06:40:21;100801.09;;;36.84;6.44
37792;BME280;29527;55.766;37.570;2023-04-19T06:42:47;100790.38;;;36.34;6.45
37792;BME280;29527;55.766;37.570;2023-04-19T06:45:13;100799.94;;;36.59;6.69
37792;BME280;29527;55.766;37.570;2023-04-19T06:47:40;100812.03;;;37.16;6.41
37792;BME280;29527;55.766;37.570;2023-04-19T06:50:06;100803.25;;;38.01;5.67
37792;BME280;29527;55.766;37.570;2023-04-19T06:52:32;100782.13;;;38.85;5.52
37792;BME280;29527;55.766;37.570;2023-04-19T06:54:57;100810.75;;;39.11;4.74
37792;BME280;29527;55.766;37.570;2023-04-19T06:57:23;100801.38;;;38.97;5.03
37792;BME280;29527;55.766;37.570;2023-04-19T06:59:49;100810.13;;;39.79;4.37
37792;BME280;29527;55.766;37.570;2023-04-19T07:02:14;100810.72;;;40.00;4.13
37792;BME280;29527;55.766;37.570;2023-04-19T07:04:40;100818.06;;;39.71;3.89
37792;BME280;29527;55.766;37.570;2023-04-19T07:07:05;100789.22;;;38.67;4.73
37792;BME280;29527;55.766;37.570;2023-04-19T07:09:31;100794.25;;;38.19;4.88
37792;BME280;29527;55.766;37.570;2023-04-19T07:11:56;100798.91;;;38.34;4.49
37792;BME280;29527;55.766;37.570;2023-04-19T07:14:22;100791.72;;;38.73;4.82
37792;BME280;29527;55.766;37.570;2023-04-19T07:16:48;100793.16;;;38.66;4.45
37792;BME280;29527;55.766;37.570;2023-04-19T07:19:14;100788.06;;;38.23;4.41
37792;BME280;29527;55.766;37.570;2023-04-19T07:21:40;100791.63;;;37.42;4.75
37792;BME280;29527;55.766;37.570;2023-04-19T07:24:06;100794.66;;;36.68;5.43
37792;BME280;29527;55.766;37.570;2023-04-19T07:26:32;100790.13;;;36.51;5.80
37792;BME280;29527;55.766;37.570;2023-04-19T07:28:59;100783.09;;;36.17;5.64
37792;BME280;29527;55.766;37.570;2023-04-19T07:31:26;100785.03;;;35.69;5.98
37792;BME280;29527;55.766;37.570;2023-04-19T07:33:52;100783.28;;;35.19;6.13
37792;BME280;29527;55.766;37.570;2023-04-19T07:36:18;100774.50;;;35.76;5.95
37792;BME280;29527;55.766;37.570;2023-04-19T07:38:44;100780.09;;;36.50;5.63
37792;BME280;29527;55.766;37.570;2023-04-19T07:41:09;100782.56;;;36.26;5.39
37792;BME280;29527;55.766;37.570;2023-04-19T07:43:35;100797.03;;;35.31;5.83
37792;BME280;29527;55.766;37.570;2023-04-19T07:46:07;100782.13;;;34.33;5.81
37792;BME280;29527;55.766;37.570;2023-04-19T07:48:33;100775.19;;;33.91;6.42
37792;BME280;29527;55.766;37.570;2023-04-19T07:51:14;100787.91;;;33.47;6.72
37792;BME280;29527;55.766;37.570;2023-04-19T07:53:45;100789.94;;;33.52;6.88
37792;BME280;29527;55.766;37.570;2023-04-19T07:56:11;100790.41;;;34.05;6.38
37792;BME280;29527;55.766;37.570;2023-04-19T07:58:37;100769.13;;;33.94;6.58
37792;BME280;29527;55.766;37.570;2023-04-19T08:01:04;100792.81;;;34.19;6.56
37792;BME280;29527;55.766;37.570;2023-04-19T08:03:30;100778.91;;;33.97;6.58
37792;BME280;29527;55.766;37.570;2023-04-19T08:05:56;100780.66;;;33.63;6.55
37792;BME280;29527;55.766;37.570;2023-04-19T08:08:22;100787.00;;;32.49;7.49
37792;BME280;29527;55.766;37.570;2023-04-19T08:10:49;100798.28;;;30.69;8.25
37792;BME280;29527;55.766;37.570;2023-04-19T08:13:14;100782.03;;;28.85;9.41
37792;BME280;29527;55.766;37.570;2023-04-19T08:15:40;100779.09;;;27.34;10.17
37792;BME280;29527;55.766;37.570;2023-04-19T08:18:06;100781.84;;;26.32;11.04
37792;BME280;29527;55.766;37.570;2023-04-19T08:20:32;100794.13;;;25.65;11.77
37792;BME280;29527;55.766;37.570;2023-04-19T08:22:59;100788.28;;;24.82;12.43
37792;BME280;29527;55.766;37.570;2023-04-19T08:25:25;100786.44;;;24.00;12.84
37792;BME280;29527;55.766;37.570;2023-04-19T08:27:54;100781.63;;;23.11;13.72
37792;BME280;29527;55.766;37.570;2023-04-19T08:30:20;100784.03;;;22.59;14.13
37792;BME280;29527;55.766;37.570;2023-04-19T08:32:45;100786.25;;;21.59;15.13
37792;BME280;29527;55.766;37.570;2023-04-19T08:35:12;100756.84;;;21.13;15.96
37792;BME280;29527;55.766;37.570;2023-04-19T08:37:38;100785.25;;;20.93;16.46
37792;BME280;29527;55.766;37.570;2023-04-19T08:40:04;100797.66;;;20.88;15.96
37792;BME280;29527;55.766;37.570;2023-04-19T08:42:30;100778.88;;;20.60;16.32
37792;BME280;29527;55.766;37.570;2023-04-19T08:44:56;100777.09;;;20.34;16.47
37792;BME280;29527;55.766;37.570;2023-04-19T08:47:27;100780.97;;;20.31;16.75
37792;BME280;29527;55.766;37.570;2023-04-19T08:49:54;100778.94;;;20.33;16.88
37792;BME280;29527;55.766;37.570;2023-04-19T08:52:20;100785.28;;;20.42;16.42
37792;BME280;29527;55.766;37.570;2023-04-19T08:54:46;100778.16;;;20.06;17.26
37792;BME280;29527;55.766;37.570;2023-04-19T08:57:12;100774.22;;;20.01;17.55
37792;BME280;29527;55.766;37.570;2023-04-19T08:59:38;100775.97;;;19.84;17.78
37792;BME280;29527;55.766;37.570;2023-04-19T09:02:04;100758.28;;;19.71;17.83
37792;BME280;29527;55.766;37.570;2023-04-19T09:04:30;100737.09;;;19.83;17.57
37792;BME280;29527;55.766;37.570;2023-04-19T09:06:56;100770.25;;;20.21;17.30
37792;BME280;29527;55.766;37.570;2023-04-19T09:09:26;100770.25;;;20.21;17.58
37792;BME280;29527;55.766;37.570;2023-04-19T09:11:53;100780.66;;;19.91;17.82
37792;BME280;29527;55.766;37.570;2023-04-19T09:14:20;100771.47;;;19.92;17.55
37792;BME280;29527;55.766;37.570;2023-04-19T09:16:46;100763.13;;;19.59;17.66
37792;BME280;29527;55.766;37.570;2023-04-19T09:19:12;100752.69;;;19.28;18.30
37792;BME280;29527;55.766;37.570;2023-04-19T09:21:38;100751.28;;;19.16;18.61
37792;BME280;29527;55.766;37.570;2023-04-19T09:24:04;100752.25;;;19.33;18.66
37792;BME280;29527;55.766;37.570;2023-04-19T09:26:31;100744.97;;;19.33;18.78
37792;BME280;29527;55.766;37.570;2023-04-19T09:29:01;100748.78;;;19.49;18.41
37792;BME280;29527;55.766;37.570;2023-04-19T09:31:29;100749.22;;;19.62;18.66
37792;BME280;29527;55.766;37.570;2023-04-19T09:33:55;100764.50;;;19.63;18.54
37792;BME280;29527;55.766;37.570;2023-04-19T09:36:32;100754.22;;;19.75;17.69
37792;BME280;29527;55.766;37.570;2023-04-19T09:38:59;100742.19;;;19.51;18.04
37792;BME280;29527;55.766;37.570;2023-04-19T09:41:25;100739.53;;;19.15;18.67
37792;BME280;29527;55.766;37.570;2023-04-19T09:43:51;100747.00;;;19.13;18.42
37792;BME280;29527;55.766;37.570;2023-04-19T09:46:36;100762.19;;;19.24;18.66
37792;BME280;29527;55.766;37.570;2023-04-19T09:49:21;100718.69;;;18.98;18.42
37792;BME280;29527;55.766;37.570;2023-04-19T09:51:52;100707.25;;;18.86;19.13
37792;BME280;29527;55.766;37.570;2023-04-19T09:54:21;100726.97;;;19.14;18.79
37792;BME280;29527;55.766;37.570;2023-04-19T09:56:48;100725.88;;;19.25;19.00
37792;BME280;29527;55.766;37.570;2023-04-19T09:59:13;100710.88;;;19.13;18.95
37792;BME280;29527;55.766;37.570;2023-04-19T10:01:45;100736.53;;;19.45;19.10
37792;BME280;29527;55.766;37.570;2023-04-19T10:04:12;100733.50;;;19.48;19.09
37792;BME280;29527;55.766;37.570;2023-04-19T10:06:39;100741.72;;;19.56;18.57
37792;BME280;29527;55.766;37.570;2023-04-19T10:09:06;100743.13;;;19.69;18.56
37792;BME280;29527;55.766;37.570;2023-04-19T10:11:36;100735.69;;;19.44;18.68
37792;BME280;29527;55.766;37.570;2023-04-19T10:14:07;100736.59;;;19.27;19.16
37792;BME280;29527;55.766;37.570;2023-04-19T10:16:35;100724.59;;;19.11;19.31
37792;BME280;29527;55.766;37.570;2023-04-19T10:19:07;100706.31;;;18.59;19.99
37792;BME280;29527;55.766;37.570;2023-04-19T10:21:34;100728.47;;;18.72;20.59
37792;BME280;29527;55.766;37.570;2023-04-19T10:24:00;100708.56;;;18.82;20.03
37792;BME280;29527;55.766;37.570;2023-04-19T10:26:27;100733.28;;;19.15;19.72
37792;BME280;29527;55.766;37.570;2023-04-19T10:28:54;100725.13;;;19.15;19.73
37792;BME280;29527;55.766;37.570;2023-04-19T10:31:21;100717.03;;;19.23;19.87
37792;BME280;29527;55.766;37.570;2023-04-19T10:33:49;100718.50;;;19.35;20.19
37792;BME280;29527;55.766;37.570;2023-04-19T10:36:16;100712.19;;;19.35;19.59
37792;BME280;29527;55.766;37.570;2023-04-19T10:38:49;100717.38;;;19.20;19.72
37792;BME280;29527;55.766;37.570;2023-04-19T10:41:20;100695.22;;;18.70;20.20
37792;BME280;29527;55.766;37.570;2023-04-19T10:44:07;100714.28;;;18.97;20.27
37792;BME280;29527;55.766;37.570;2023-04-19T10:49:01;100720.34;;;19.08;19.73
37792;BME280;29527;55.766;37.570;2023-04-19T10:51:31;100704.94;;;18.73;20.11
37792;BME280;29527;55.766;37.570;2023-04-19T10:53:58;100714.47;;;18.59;20.69
37792;BME280;29527;55.766;37.570;2023-04-19T11:01:41;100705.75;;;19.10;20.17
37792;BME280;29527;55.766;37.570;2023-04-19T11:04:08;100700.00;;;19.13;20.06
37792;BME280;29527;55.766;37.570;2023-04-19T11:07:16;100697.34;;;19.21;19.74
37792;BME280;29527;55.766;37.570;2023-04-19T11:11:59;100691.50;;;19.07;19.94
37792;BME280;29527;55.766;37.570;2023-04-19T11:14:27;100679.16;;;18.95;20.53
37792;BME280;29527;55.766;37.570;2023-04-19T11:16:54;100695.44;;;19.13;19.93
37792;BME280;29527;55.766;37.570;2023-04-19T11:19:19;100689.31;;;18.93;20.01
37792;BME280;29527;55.766;37.570;2023-04-19T11:21:45;100691.66;;;18.88;19.95
37792;BME280;29527;55.766;37.570;2023-04-19T11:24:11;100689.56;;;18.82;19.87
37792;BME280;29527;55.766;37.570;2023-04-19T11:26:37;100685.94;;;18.55;20.33
37792;BME280;29527;55.766;37.570;2023-04-19T11:29:03;100663.47;;;18.44;19.99
37792;BME280;29527;55.766;37.570;2023-04-19T11:31:34;100680.44;;;18.46;20.10
37792;BME280;29527;55.766;37.570;2023-04-19T11:33:59;100675.63;;;18.22;20.44
37792;BME280;29527;55.766;37.570;2023-04-19T11:36:26;100674.81;;;18.12;20.56
37792;BME280;29527;55.766;37.570;2023-04-19T11:38:52;100679.19;;;18.22;20.30
37792;BME280;29527;55.766;37.570;2023-04-19T11:41:18;100685.06;;;18.18;20.17
37792;BME280;29527;55.766;37.570;2023-04-19T11:43:44;100664.59;;;18.05;20.73
37792;BME280;29527;55.766;37.570;2023-04-19T11:46:12;100675.69;;;18.12;20.54
37792;BME280;29527;55.766;37.570;2023-04-19T11:48:48;100676.72;;;18.29;20.58
37792;BME280;29527;55.766;37.570;2023-04-19T11:51:14;100676.78;;;18.19;20.52
37792;BME280;29527;55.766;37.570;2023-04-19T11:53:40;100673.69;;;18.14;20.25
37792;BME280;29527;55.766;37.570;2023-04-19T11:56:07;100665.81;;;18.21;20.37
37792;BME280;29527;55.766;37.570;2023-04-19T12:01:03;100661.22;;;18.21;20.45
37792;BME280;29527;55.766;37.570;2023-04-19T12:03:31;100630.63;;;18.11;20.46
37792;BME280;29527;55.766;37.570;2023-04-19T12:05:58;100657.13;;;18.35;20.33
37792;BME280;29527;55.766;37.570;2023-04-19T12:08:35;100655.72;;;18.49;20.20
37792;BME280;29527;55.766;37.570;2023-04-19T12:11:02;100654.16;;;18.65;19.70
37792;BME280;29527;55.766;37.570;2023-04-19T12:13:28;100659.53;;;18.57;19.89
37792;BME280;29527;55.766;37.570;2023-04-19T12:15:55;100662.53;;;18.72;19.54
37792;BME280;29527;55.766;37.570;2023-04-19T12:18:21;100658.53;;;18.58;19.46
37792;BME280;29527;55.766;37.570;2023-04-19T12:20:48;100652.88;;;18.33;19.84
37792;BME280;29527;55.766;37.570;2023-04-19T12:23:15;100652.47;;;18.28;20.06
37792;BME280;29527;55.766;37.570;2023-04-19T12:25:43;100660.13;;;18.32;19.62
37792;BME280;29527;55.766;37.570;2023-04-19T12:28:08;100646.81;;;18.39;19.54
37792;BME280;29527;55.766;37.570;2023-04-19T12:30:35;100647.13;;;18.36;19.48
37792;BME280;29527;55.766;37.570;2023-04-19T12:33:01;100646.56;;;18.50;19.23
37792;BME280;29527;55.766;37.570;2023-04-19T12:35:27;100657.28;;;18.34;19.43
37792;BME280;29527;55.766;37.570;2023-04-19T12:37:55;100620.19;;;17.88;19.63
37792;BME280;29527;55.766;37.570;2023-04-19T12:40:21;100639.28;;;17.87;19.77
37792;BME280;29527;55.766;37.570;2023-04-19T12:42:48;100643.94;;;17.76;19.88
37792;BME280;29527;55.766;37.570;2023-04-19T12:45:13;100640.75;;;17.81;20.10
37792;BME280;29527;55.766;37.570;2023-04-19T12:47:40;100618.84;;;17.74;20.30
37792;BME280;29527;55.766;37.570;2023-04-19T12:50:06;100626.44;;;17.89;19.84
37792;BME280;29527;55.766;37.570;2023-04-19T12:52:33;100633.97;;;17.95;19.98